Time;durP1;ratioP1;P1;durP2;ratioP2;P2;SDS_P1;SDS_P2;PMS_P1;PMS_P2;Temp;Humidity;BMP_temperature;BMP_pressure;BME280_temperature;BME280_humidity;BME280_pressure;Samples;Min_cycle;Max_cycle;Signal;HPM_P1;HPM_P2
2023/08/06 00:02:54;;;;;;;2.67;1.50;;;;;;;;;;10368328;28;20489;-61
2023/08/06 00:07:55;;;;;;;2.85;1.75;;;;;;;;;;10368054;28;20040;-61
2023/08/06 00:12:55;;;;;;;2.42;1.20;;;;;;;;;;10366692;28;20034;-61
2023/08/06 00:17:56;;;;;;;3.53;1.27;;;;;;;;;;10367718;28;20029;-60
2023/08/06 00:22:56;;;;;;;5.43;1.45;;;;;;;;;;10368221;28;20080;-61
2023/08/06 00:27:57;;;;;;;5.10;1.30;;;;;;;;;;10366870;28;20030;-62
2023/08/06 00:32:58;;;;;;;3.67;1.30;;;;;;;;;;10367227;28;20033;-61
2023/08/06 00:37:58;;;;;;;4.82;1.20;;;;;;;;;;10367844;28;20057;-61
2023/08/06 00:42:59;;;;;;;3.90;1.00;;;;;;;;;;10367702;28;20041;-61
2023/08/06 00:48:00;;;;;;;2.17;1.08;;;;;;;;;;10367620;28;20030;-62
2023/08/06 00:53:01;;;;;;;1.73;1.02;;;;;;;;;;10367323;28;20042;-63
2023/08/06 00:58:02;;;;;;;4.30;1.20;;;;;;;;;;10363104;28;20393;-63
2023/08/06 01:03:03;;;;;;;2.00;1.25;;;;;;;;;;10374528;28;20037;-63
2023/08/06 01:08:52;;;;;;;2.88;1.05;;;;;;;;;;10374638;28;20389;-62
2023/08/06 01:14:13;;;;;;;3.05;1.20;;;;;;;;;;10362030;28;20038;-61
2023/08/06 01:19:20;;;;;;;1.70;1.30;;;;;;;;;;10372560;28;20038;-61
2023/08/06 01:24:20;;;;;;;6.13;1.10;;;;;;;;;;10373605;28;20056;-61
2023/08/06 01:29:54;;;;;;;1.95;1.20;;;;;;;;;;10373694;28;20033;-62
2023/08/06 01:34:56;;;;;;;14.00;1.50;;;;;;;;;;10372236;28;20121;-61
2023/08/06 01:39:57;;;;;;;2.42;1.38;;;;;;;;;;10372742;28;20021;-61
2023/08/06 01:44:57;;;;;;;10.18;1.42;;;;;;;;;;10372502;28;20383;-61
2023/08/06 01:49:58;;;;;;;1.95;1.10;;;;;;;;;;10373387;28;20030;-62
2023/08/06 01:54:58;;;;;;;3.42;1.13;;;;;;;;;;10373306;28;20084;-61
2023/08/06 01:59:59;;;;;;;2.38;1.33;;;;;;;;;;10372510;28;20053;-61
2023/08/06 02:05:00;;;;;;;3.80;1.42;;;;;;;;;;10371889;28;20027;-61
2023/08/06 02:10:00;;;;;;;1.75;1.20;;;;;;;;;;10371021;28;20026;-64
2023/08/06 02:15:01;;;;;;;7.93;1.60;;;;;;;;;;10371705;28;20021;-61
2023/08/06 02:20:01;;;;;;;1.83;1.23;;;;;;;;;;10372254;28;20069;-62
2023/08/06 02:25:02;;;;;;;3.08;1.33;;;;;;;;;;10371773;28;20034;-62
2023/08/06 02:30:04;;;;;;;2.60;1.50;;;;;;;;;;10370779;28;20033;-67
2023/08/06 02:35:05;;;;;;;2.63;1.55;;;;;;;;;;10367339;28;20417;-63
2023/08/06 02:40:07;;;;;;;4.55;1.30;;;;;;;;;;10371173;28;20097;-67
2023/08/06 02:45:08;;;;;;;3.72;1.20;;;;;;;;;;10370708;28;20502;-62
2023/08/06 02:50:09;;;;;;;2.55;1.30;;;;;;;;;;10370615;28;20623;-61
2023/08/06 02:55:10;;;;;;;2.78;1.30;;;;;;;;;;10370941;28;20275;-61
2023/08/06 03:00:11;;;;;;;5.50;1.27;;;;;;;;;;10370091;28;20045;-61
2023/08/06 03:05:12;;;;;;;4.47;1.25;;;;;;;;;;10370540;28;20281;-61
2023/08/06 03:10:13;;;;;;;5.15;1.40;;;;;;;;;;10370344;28;20268;-61
2023/08/06 03:15:13;;;;;;;4.30;1.42;;;;;;;;;;10369687;28;20452;-60
2023/08/06 03:20:14;;;;;;;3.45;1.40;;;;;;;;;;10368483;28;20036;-61
2023/08/06 03:25:15;;;;;;;5.75;1.50;;;;;;;;;;10369227;28;20084;-61
2023/08/06 03:30:15;;;;;;;3.97;1.58;;;;;;;;;;10369714;28;20030;-61
2023/08/06 03:35:16;;;;;;;3.80;1.30;;;;;;;;;;10369283;28;20036;-61
2023/08/06 03:40:16;;;;;;;3.50;1.20;;;;;;;;;;10368815;28;20034;-62
2023/08/06 03:45:17;;;;;;;6.03;1.05;;;;;;;;;;10368530;28;20516;-63
2023/08/06 03:50:18;;;;;;;6.00;1.48;;;;;;;;;;10368970;28;20473;-63
2023/08/06 03:55:18;;;;;;;2.05;1.23;;;;;;;;;;10368640;28;20474;-64
2023/08/06 04:00:19;;;;;;;2.17;1.08;;;;;;;;;;10368317;28;20053;-63
2023/08/06 04:05:20;;;;;;;4.30;1.30;;;;;;;;;;10363516;28;20036;-63
2023/08/06 04:10:21;;;;;;;2.78;1.20;;;;;;;;;;10368252;28;20040;-64
2023/08/06 04:15:21;;;;;;;5.70;1.23;;;;;;;;;;10367609;28;20025;-64
2023/08/06 04:20:22;;;;;;;1.55;0.98;;;;;;;;;;10368180;28;20029;-63
2023/08/06 04:25:23;;;;;;;3.70;1.05;;;;;;;;;;10367825;28;20030;-63
2023/08/06 04:30:23;;;;;;;5.65;0.90;;;;;;;;;;10368208;28;20053;-64
2023/08/06 04:35:24;;;;;;;4.53;1.17;;;;;;;;;;10374097;28;20026;-63
2023/08/06 04:40:24;;;;;;;4.55;1.15;;;;;;;;;;10376666;28;20025;-63
2023/08/06 04:45:25;;;;;;;2.17;1.10;;;;;;;;;;10375384;28;20108;-62
2023/08/06 04:50:26;;;;;;;2.03;0.82;;;;;;;;;;10374471;28;20080;-62
2023/08/06 04:55:26;;;;;;;5.90;0.90;;;;;;;;;;10375057;28;20056;-61
2023/08/06 05:00:27;;;;;;;3.67;1.10;;;;;;;;;;10374703;28;20398;-61
2023/08/06 05:05:28;;;;;;;7.88;1.13;;;;;;;;;;10374588;28;20560;-62
2023/08/06 05:10:29;;;;;;;1.83;1.00;;;;;;;;;;10374486;28;20030;-62
2023/08/06 05:15:29;;;;;;;3.67;1.13;;;;;;;;;;10373785;28;20327;-62
2023/08/06 05:20:30;;;;;;;2.47;0.93;;;;;;;;;;10374694;28;20217;-64
2023/08/06 05:25:31;;;;;;;3.40;0.80;;;;;;;;;;10374288;28;20032;-62
2023/08/06 05:30:32;;;;;;;5.57;0.73;;;;;;;;;;10374172;28;20041;-62
2023/08/06 05:35:32;;;;;;;2.42;0.80;;;;;;;;;;10390874;23;20061;-54
2023/08/06 05:40:34;;;;;;;3.60;1.00;;;;;;;;;;10368052;28;20033;-53
2023/08/06 05:45:34;;;;;;;1.45;0.80;;;;;;;;;;10387627;28;20401;-53
2023/08/06 05:50:35;;;;;;;1.75;0.90;;;;;;;;;;10371746;28;20021;-55
2023/08/06 05:55:36;;;;;;;5.45;0.90;;;;;;;;;;10372321;28;20033;-54
2023/08/06 06:00:36;;;;;;;1.02;0.80;;;;;;;;;;10371946;28;20026;-54
2023/08/06 06:05:40;;;;;;;4.10;0.98;;;;;;;;;;10371582;28;20014;-51
2023/08/06 06:10:41;;;;;;;2.17;1.05;;;;;;;;;;10372178;28;20033;-48
2023/08/06 06:15:41;;;;;;;2.13;0.80;;;;;;;;;;10371733;28;20273;-54
2023/08/06 06:20:42;;;;;;;4.85;0.65;;;;;;;;;;10371741;28;20289;-57
2023/08/06 06:25:46;;;;;;;2.00;0.63;;;;;;;;;;10371018;28;20433;-57
2023/08/06 06:30:48;;;;;;;1.02;0.90;;;;;;;;;;10371387;28;20033;-51
2023/08/06 06:35:49;;;;;;;1.98;0.90;;;;;;;;;;10370462;28;20379;-53
2023/08/06 06:40:56;;;;;;;1.52;0.80;;;;;;;;;;10367395;28;20037;-54
2023/08/06 06:46:00;;;;;;;2.38;1.00;;;;;;;;;;10370845;28;20229;-54
2023/08/06 06:51:01;;;;;;;7.13;0.95;;;;;;;;;;10370495;28;20084;-53
2023/08/06 06:56:03;;;;;;;3.92;0.95;;;;;;;;;;10369423;28;20072;-56
2023/08/06 07:01:04;;;;;;;6.65;1.90;;;;;;;;;;10370725;28;20032;-53
2023/08/06 07:06:06;;;;;;;1.27;0.70;;;;;;;;;;10369409;28;20125;-52
2023/08/06 07:11:07;;;;;;;1.83;0.80;;;;;;;;;;10369829;28;20030;-51
2023/08/06 07:16:08;;;;;;;3.30;1.10;;;;;;;;;;10364492;28;20080;-52
2023/08/06 07:21:08;;;;;;;2.17;0.90;;;;;;;;;;10368464;28;20032;-51
2023/08/06 07:26:09;;;;;;;3.50;1.08;;;;;;;;;;10366511;28;20025;-52
2023/08/06 07:31:09;;;;;;;4.95;0.90;;;;;;;;;;10369087;28;20122;-52
2023/08/06 07:36:12;;;;;;;0.82;0.70;;;;;;;;;;10367424;28;20053;-50
2023/08/06 07:41:13;;;;;;;3.53;0.88;;;;;;;;;;10368122;28;20029;-52
2023/08/06 07:46:14;;;;;;;5.68;0.95;;;;;;;;;;10368579;28;20381;-51
2023/08/06 07:51:14;;;;;;;3.97;0.88;;;;;;;;;;10368908;28;20037;-51
2023/08/06 07:56:15;;;;;;;1.65;1.00;;;;;;;;;;10368152;28;20022;-50
2023/08/06 08:01:15;;;;;;;3.03;0.90;;;;;;;;;;10366871;28;20022;-48
2023/08/06 08:06:16;;;;;;;1.05;0.63;;;;;;;;;;10367942;28;20037;-50
2023/08/06 08:11:17;;;;;;;0.93;0.80;;;;;;;;;;10368114;28;20458;-51
2023/08/06 08:16:18;;;;;;;1.38;0.70;;;;;;;;;;10368129;28;20025;-51
2023/08/06 08:21:18;;;;;;;1.30;0.77;;;;;;;;;;10367338;28;20030;-51
2023/08/06 08:26:19;;;;;;;4.57;0.98;;;;;;;;;;10367439;28;20022;-51
2023/08/06 08:31:19;;;;;;;3.13;1.10;;;;;;;;;;10366584;28;20034;-49
2023/08/06 08:36:20;;;;;;;0.98;0.73;;;;;;;;;;10367368;28;20113;-51
2023/08/06 08:41:21;;;;;;;2.80;0.98;;;;;;;;;;10367289;28;20026;-50
2023/08/06 08:46:23;;;;;;;4.30;0.90;;;;;;;;;;10367659;28;20037;-51
2023/08/06 08:51:24;;;;;;;1.15;0.90;;;;;;;;;;10361163;28;20026;-51
2023/08/06 08:56:25;;;;;;;3.35;0.88;;;;;;;;;;10367350;28;20030;-50
2023/08/06 09:01:26;;;;;;;3.17;0.90;;;;;;;;;;10366735;28;20124;-51
2023/08/06 09:06:29;;;;;;;3.55;0.80;;;;;;;;;;10348943;28;20072;-47
2023/08/06 09:11:39;;;;;;;1.48;0.85;;;;;;;;;;10366993;28;20152;-49
2023/08/06 09:16:40;;;;;;;0.73;0.52;;;;;;;;;;10366748;28;20033;-51
2023/08/06 09:21:42;;;;;;;0.98;0.70;;;;;;;;;;10371885;28;20034;-52
2023/08/06 09:26:45;;;;;;;1.23;0.82;;;;;;;;;;10374279;28;20286;-51
2023/08/06 09:31:52;;;;;;;1.17;0.80;;;;;;;;;;10374092;28;20034;-55
2023/08/06 09:36:54;;;;;;;1.73;0.80;;;;;;;;;;10373274;28;20327;-48
2023/08/06 09:41:59;;;;;;;0.85;0.85;;;;;;;;;;10372867;28;20076;-52
2023/08/06 09:47:03;;;;;;;1.00;0.88;;;;;;;;;;10373108;28;20061;-55
2023/08/06 09:52:04;;;;;;;1.13;0.80;;;;;;;;;;10373836;28;20080;-48
2023/08/06 09:57:06;;;;;;;2.05;0.80;;;;;;;;;;10370820;28;20118;-51
2023/08/06 10:02:13;;;;;;;0.82;0.82;;;;;;;;;;10372266;28;20389;-50
2023/08/06 10:07:14;;;;;;;1.33;0.90;;;;;;;;;;10371205;28;20390;-51
2023/08/06 10:12:18;;;;;;;1.73;0.82;;;;;;;;;;10371137;28;20488;-51
2023/08/06 10:17:19;;;;;;;1.75;0.77;;;;;;;;;;10372225;28;20034;-49
2023/08/06 10:22:20;;;;;;;1.50;0.80;;;;;;;;;;10372462;28;20116;-51
2023/08/06 10:27:34;;;;;;;1.65;0.90;;;;;;;;;;10366062;28;20022;-51
2023/08/06 10:32:49;;;;;;;1.10;0.70;;;;;;;;;;10371902;28;20037;-50
2023/08/06 10:37:49;;;;;;;1.13;0.90;;;;;;;;;;10369734;28;20482;-51
2023/08/06 10:42:50;;;;;;;1.30;0.63;;;;;;;;;;10369977;28;20030;-52
2023/08/06 10:47:50;;;;;;;1.35;0.77;;;;;;;;;;10371090;28;20474;-51
2023/08/06 10:52:52;;;;;;;2.75;0.63;;;;;;;;;;10370671;28;20072;-51
2023/08/06 10:57:53;;;;;;;0.70;0.70;;;;;;;;;;10370905;28;20084;-50
2023/08/06 11:02:55;;;;;;;2.55;0.77;;;;;;;;;;10370388;28;20025;-50
2023/08/06 11:07:55;;;;;;;0.70;0.70;;;;;;;;;;10370596;28;20030;-52
2023/08/06 11:13:02;;;;;;;1.95;0.88;;;;;;;;;;10368632;28;20037;-52
2023/08/06 11:18:03;;;;;;;1.23;0.80;;;;;;;;;;10370212;28;20036;-50
2023/08/06 11:23:04;;;;;;;1.30;0.95;;;;;;;;;;10368354;28;20351;-52
2023/08/06 11:28:05;;;;;;;0.93;0.90;;;;;;;;;;10363919;28;20288;-52
2023/08/06 11:33:09;;;;;;;1.05;0.80;;;;;;;;;;10368621;28;20265;-51
2023/08/06 11:38:10;;;;;;;1.38;0.80;;;;;;;;;;10368038;28;20069;-51
2023/08/06 11:43:12;;;;;;;0.80;0.77;;;;;;;;;;10368373;28;20041;-54
2023/08/06 11:48:12;;;;;;;1.23;0.80;;;;;;;;;;10368553;28;20041;-47
2023/08/06 11:53:14;;;;;;;0.85;0.70;;;;;;;;;;10368192;28;20370;-50
2023/08/06 11:58:17;;;;;;;1.85;0.90;;;;;;;;;;10362408;28;20033;-52
2023/08/06 12:03:20;;;;;;;2.53;0.80;;;;;;;;;;10367279;28;20050;-51
2023/08/06 12:08:20;;;;;;;1.58;0.82;;;;;;;;;;10368907;28;20076;-50
2023/08/06 12:13:21;;;;;;;0.90;0.90;;;;;;;;;;10368388;28;20038;-50
2023/08/06 12:18:22;;;;;;;1.48;0.90;;;;;;;;;;10367201;28;20041;-50
2023/08/06 12:23:22;;;;;;;0.93;0.90;;;;;;;;;;10367326;28;20053;-52
2023/08/06 12:28:23;;;;;;;1.98;1.10;;;;;;;;;;10367907;28;20037;-52
2023/08/06 12:33:24;;;;;;;1.25;1.05;;;;;;;;;;10367375;28;20033;-50
2023/08/06 12:38:24;;;;;;;2.22;1.02;;;;;;;;;;10367060;28;20053;-49
2023/08/06 12:43:25;;;;;;;1.17;0.90;;;;;;;;;;10366562;28;20034;-52
2023/08/06 12:48:25;;;;;;;1.02;0.88;;;;;;;;;;10367409;28;20033;-50
2023/08/06 12:53:26;;;;;;;1.35;1.00;;;;;;;;;;10368825;28;20072;-51
2023/08/06 12:58:26;;;;;;;1.25;1.00;;;;;;;;;;10375552;28;20076;-50
2023/08/06 13:03:27;;;;;;;2.42;1.00;;;;;;;;;;10374895;28;20026;-52
2023/08/06 13:08:28;;;;;;;1.30;1.00;;;;;;;;;;10375498;28;20018;-51
2023/08/06 13:13:37;;;;;;;2.03;0.90;;;;;;;;;;10374762;28;20544;-50
2023/08/06 13:18:38;;;;;;;0.93;0.90;;;;;;;;;;10374514;28;20113;-50
2023/08/06 13:23:38;;;;;;;0.90;0.90;;;;;;;;;;10374171;28;20029;-52
2023/08/06 13:28:39;;;;;;;1.05;0.90;;;;;;;;;;10373394;28;20088;-55
2023/08/06 13:33:39;;;;;;;1.65;1.17;;;;;;;;;;10367820;28;20029;-50
2023/08/06 13:38:40;;;;;;;1.40;0.90;;;;;;;;;;10373382;28;20042;-52
2023/08/06 13:43:42;;;;;;;1.17;1.02;;;;;;;;;;10388252;28;20030;-49
2023/08/06 13:48:44;;;;;;;1.48;1.00;;;;;;;;;;10372774;28;20052;-52
2023/08/06 13:53:45;;;;;;;1.02;1.00;;;;;;;;;;10373155;28;20065;-50
2023/08/06 13:58:45;;;;;;;4.10;1.20;;;;;;;;;;10372700;28;20050;-51
2023/08/06 14:03:46;;;;;;;1.63;0.80;;;;;;;;;;10372166;28;20026;-50
2023/08/06 14:08:46;;;;;;;1.88;0.80;;;;;;;;;;10372938;28;20286;-48
2023/08/06 14:13:47;;;;;;;0.75;0.75;;;;;;;;;;10372093;28;20042;-52
2023/08/06 14:18:48;;;;;;;1.00;0.90;;;;;;;;;;10372663;28;20036;-51
2023/08/06 14:23:48;;;;;;;1.13;0.90;;;;;;;;;;10370848;28;20033;-53
2023/08/06 14:28:52;;;;;;;1.52;1.13;;;;;;;;;;10371269;28;20021;-50
2023/08/06 14:33:52;;;;;;;1.50;0.95;;;;;;;;;;10371963;28;20033;-48
2023/08/06 14:38:53;;;;;;;1.80;1.00;;;;;;;;;;10371105;28;20058;-51
2023/08/06 14:43:54;;;;;;;1.08;1.00;;;;;;;;;;10370823;28;20470;-54
2023/08/06 14:48:54;;;;;;;2.88;1.00;;;;;;;;;;10370703;28;20041;-51
2023/08/06 14:53:55;;;;;;;4.00;0.90;;;;;;;;;;10370379;28;20033;-52
2023/08/06 14:58:55;;;;;;;2.05;0.90;;;;;;;;;;10370480;28;20466;-51
2023/08/06 15:03:56;;;;;;;1.10;1.00;;;;;;;;;;10370082;28;20485;-52
2023/08/06 15:09:00;;;;;;;1.85;0.80;;;;;;;;;;10370154;28;20026;-52
2023/08/06 15:14:01;;;;;;;1.88;0.90;;;;;;;;;;10369468;28;20041;-53
2023/08/06 15:19:01;;;;;;;0.80;0.80;;;;;;;;;;10364074;28;20026;-50
2023/08/06 15:24:02;;;;;;;1.08;1.00;;;;;;;;;;10369778;28;20030;-50
2023/08/06 15:29:03;;;;;;;0.90;0.90;;;;;;;;;;10369726;28;20030;-51
2023/08/06 15:34:05;;;;;;;1.40;0.90;;;;;;;;;;10369469;28;20030;-50
2023/08/06 15:39:06;;;;;;;0.80;0.80;;;;;;;;;;10368652;28;20073;-52
2023/08/06 15:44:06;;;;;;;1.23;1.02;;;;;;;;;;10368473;28;20022;-51
2023/08/06 15:49:07;;;;;;;0.88;0.88;;;;;;;;;;10368676;28;20025;-49
2023/08/06 15:54:08;;;;;;;0.80;0.80;;;;;;;;;;10367974;28;20030;-51
2023/08/06 15:59:30;;;;;;;1.58;0.80;;;;;;;;;;10368427;28;20033;-50
2023/08/06 16:04:31;;;;;;;0.80;0.80;;;;;;;;;;10367929;28;20132;-51
2023/08/06 16:09:31;;;;;;;3.00;1.15;;;;;;;;;;10368028;28;20030;-50
2023/08/06 16:14:32;;;;;;;0.82;0.80;;;;;;;;;;10368135;28;20409;-50
2023/08/06 16:19:32;;;;;;;2.53;0.95;;;;;;;;;;10367555;28;20029;-50
2023/08/06 16:24:33;;;;;;;1.02;0.93;;;;;;;;;;10367605;28;20037;-51
2023/08/06 16:29:35;;;;;;;0.82;0.70;;;;;;;;;;10367325;28;20025;-49
2023/08/06 16:34:35;;;;;;;0.90;0.90;;;;;;;;;;10365182;28;20030;-53
2023/08/06 16:39:36;;;;;;;4.72;1.50;;;;;;;;;;10365283;28;20026;-52
2023/08/06 16:44:37;;;;;;;1.55;0.93;;;;;;;;;;10365817;28;20038;-52
2023/08/06 16:49:45;;;;;;;1.70;0.85;;;;;;;;;;10367020;28;20084;-52
2023/08/06 16:54:46;;;;;;;1.67;0.80;;;;;;;;;;10366890;28;20033;-52
2023/08/06 16:59:47;;;;;;;0.80;0.77;;;;;;;;;;10365231;28;20021;-52
2023/08/06 17:04:47;;;;;;;2.53;0.90;;;;;;;;;;10366597;28;20077;-54
2023/08/06 17:09:48;;;;;;;1.25;0.73;;;;;;;;;;10366968;28;20026;-53
2023/08/06 17:14:49;;;;;;;1.60;0.90;;;;;;;;;;10366103;28;20041;-51
2023/08/06 17:19:50;;;;;;;1.55;0.85;;;;;;;;;;10366375;28;20041;-52
2023/08/06 17:24:50;;;;;;;4.82;1.00;;;;;;;;;;10366429;28;20393;-53
2023/08/06 17:29:51;;;;;;;1.20;1.10;;;;;;;;;;10365267;28;20030;-53
2023/08/06 17:34:51;;;;;;;1.95;0.90;;;;;;;;;;10366069;28;20042;-52
2023/08/06 17:39:53;;;;;;;1.67;0.90;;;;;;;;;;10366985;28;20030;-52
2023/08/06 17:44:53;;;;;;;2.83;0.70;;;;;;;;;;10369557;28;20420;-53
2023/08/06 17:49:54;;;;;;;2.58;1.00;;;;;;;;;;10373651;28;20036;-51
2023/08/06 17:54:55;;;;;;;7.97;0.75;;;;;;;;;;10373280;28;20048;-52
2023/08/06 17:59:55;;;;;;;0.85;0.60;;;;;;;;;;10373629;28;20026;-53
2023/08/06 18:04:56;;;;;;;0.98;0.80;;;;;;;;;;10372710;28;20030;-52
2023/08/06 18:09:56;;;;;;;1.10;0.68;;;;;;;;;;10370505;28;20025;-51
2023/08/06 18:14:58;;;;;;;0.70;0.70;;;;;;;;;;10371391;28;20045;-52
2023/08/06 18:19:58;;;;;;;1.25;0.70;;;;;;;;;;10371420;28;20021;-51
2023/08/06 18:25:02;;;;;;;0.60;0.60;;;;;;;;;;10372367;28;20545;-51
2023/08/06 18:30:03;;;;;;;0.88;0.88;;;;;;;;;;10372276;28;20033;-52
2023/08/06 18:35:04;;;;;;;2.15;0.70;;;;;;;;;;10371520;28;20111;-53
2023/08/06 18:40:10;;;;;;;1.13;0.60;;;;;;;;;;10370999;28;20096;-51
2023/08/06 18:45:10;;;;;;;2.20;0.63;;;;;;;;;;10371691;28;20381;-52
2023/08/06 18:50:11;;;;;;;0.80;0.75;;;;;;;;;;10370365;28;20026;-52
2023/08/06 18:55:12;;;;;;;0.95;0.70;;;;;;;;;;10366917;28;20185;-52
2023/08/06 19:00:13;;;;;;;3.33;0.77;;;;;;;;;;10369988;28;20026;-51
2023/08/06 19:05:13;;;;;;;1.45;0.63;;;;;;;;;;10371047;28;20021;-51
2023/08/06 19:10:14;;;;;;;1.40;0.70;;;;;;;;;;10369992;28;20037;-53
2023/08/06 19:15:14;;;;;;;1.33;0.82;;;;;;;;;;10369535;28;20029;-55
2023/08/06 19:20:16;;;;;;;1.38;0.93;;;;;;;;;;10370273;28;20030;-51
2023/08/06 19:25:17;;;;;;;0.82;0.80;;;;;;;;;;10369918;28;20119;-51
2023/08/06 19:30:17;;;;;;;0.80;0.70;;;;;;;;;;10370157;28;20033;-52
2023/08/06 19:35:18;;;;;;;0.75;0.55;;;;;;;;;;10369436;28;20125;-51
2023/08/06 19:40:19;;;;;;;0.88;0.70;;;;;;;;;;10369879;28;20033;-52
2023/08/06 19:45:20;;;;;;;0.60;0.60;;;;;;;;;;10369514;28;20597;-52
2023/08/06 19:50:21;;;;;;;1.00;0.70;;;;;;;;;;10368691;28;20506;-52
2023/08/06 19:55:22;;;;;;;0.50;0.50;;;;;;;;;;10368823;28;20022;-52
2023/08/06 20:00:22;;;;;;;0.73;0.60;;;;;;;;;;10368701;28;20025;-51
2023/08/06 20:05:23;;;;;;;0.80;0.75;;;;;;;;;;10368628;28;20048;-49
2023/08/06 20:10:23;;;;;;;0.85;0.70;;;;;;;;;;10368015;28;20030;-51
2023/08/06 20:15:24;;;;;;;0.60;0.60;;;;;;;;;;10368073;28;20034;-52
2023/08/06 20:20:25;;;;;;;0.80;0.80;;;;;;;;;;10368303;28;20030;-51
2023/08/06 20:25:25;;;;;;;0.70;0.70;;;;;;;;;;10367478;28;20364;-51
2023/08/06 20:30:26;;;;;;;0.68;0.63;;;;;;;;;;10367616;28;20018;-50
2023/08/06 20:35:27;;;;;;;6.60;0.90;;;;;;;;;;10366594;28;20045;-53
2023/08/06 20:40:30;;;;;;;5.38;0.98;;;;;;;;;;10368388;28;20040;-54
2023/08/06 20:45:30;;;;;;;3.13;0.70;;;;;;;;;;10366716;28;20053;-57
2023/08/06 20:50:31;;;;;;;3.60;0.90;;;;;;;;;;10367121;28;20030;-56
2023/08/06 20:55:32;;;;;;;0.70;0.70;;;;;;;;;;10353190;28;20026;-55
2023/08/06 21:00:32;;;;;;;1.92;0.70;;;;;;;;;;10366873;28;20030;-51
2023/08/06 21:05:33;;;;;;;0.63;0.60;;;;;;;;;;10367273;28;20030;-51
2023/08/06 21:10:33;;;;;;;1.48;0.60;;;;;;;;;;10366939;28;20177;-52
2023/08/06 21:15:34;;;;;;;1.88;0.88;;;;;;;;;;10367582;28;20022;-54
2023/08/06 21:20:35;;;;;;;4.13;0.90;;;;;;;;;;10372517;28;20125;-53
2023/08/06 21:25:35;;;;;;;2.45;0.75;;;;;;;;;;10374496;28;20029;-54
2023/08/06 21:30:36;;;;;;;2.35;0.70;;;;;;;;;;10373911;28;20030;-52
2023/08/06 21:35:36;;;;;;;2.20;0.70;;;;;;;;;;10373945;28;20104;-52
2023/08/06 21:40:37;;;;;;;2.05;0.73;;;;;;;;;;10373499;28;20041;-51
2023/08/06 21:45:37;;;;;;;2.85;0.80;;;;;;;;;;10372645;28;20080;-54
2023/08/06 21:50:38;;;;;;;1.80;0.90;;;;;;;;;;10373186;28;20025;-53
2023/08/06 21:55:40;;;;;;;1.52;0.90;;;;;;;;;;10372085;28;20056;-55
2023/08/06 22:00:40;;;;;;;7.97;0.77;;;;;;;;;;10372078;28;20038;-55
2023/08/06 22:05:41;;;;;;;6.13;1.00;;;;;;;;;;10371831;28;20084;-54
2023/08/06 22:10:41;;;;;;;8.00;1.00;;;;;;;;;;10372142;28;20033;-56
2023/08/06 22:15:42;;;;;;;5.55;0.77;;;;;;;;;;10372001;28;20045;-54
2023/08/06 22:20:43;;;;;;;6.63;0.80;;;;;;;;;;10371422;28;20025;-54
2023/08/06 22:25:44;;;;;;;1.05;0.75;;;;;;;;;;10371839;28;20486;-54
2023/08/06 22:30:44;;;;;;;1.92;0.70;;;;;;;;;;10371889;28;20026;-53
2023/08/06 22:35:45;;;;;;;1.75;0.57;;;;;;;;;;10371570;28;20042;-54
2023/08/06 22:40:46;;;;;;;2.35;0.70;;;;;;;;;;10371670;28;20096;-54
2023/08/06 22:45:46;;;;;;;2.85;0.90;;;;;;;;;;10371903;28;20040;-53
2023/08/06 22:50:47;;;;;;;0.75;0.68;;;;;;;;;;10371195;28;20389;-50
2023/08/06 22:55:48;;;;;;;1.30;0.80;;;;;;;;;;10370947;28;20393;-55
2023/08/06 23:00:48;;;;;;;2.47;0.57;;;;;;;;;;10370855;28;20034;-52
2023/08/06 23:05:49;;;;;;;0.85;0.70;;;;;;;;;;10371038;28;20030;-53
2023/08/06 23:10:49;;;;;;;1.40;0.80;;;;;;;;;;10371056;28;20052;-54
2023/08/06 23:15:50;;;;;;;0.90;0.73;;;;;;;;;;10370522;28;20026;-52
2023/08/06 23:20:50;;;;;;;7.72;0.85;;;;;;;;;;10370351;28;20040;-51
2023/08/06 23:25:51;;;;;;;1.63;0.90;;;;;;;;;;10369898;28;20418;-52
2023/08/06 23:30:52;;;;;;;2.45;0.80;;;;;;;;;;10370232;28;20382;-53
2023/08/06 23:35:52;;;;;;;1.13;0.80;;;;;;;;;;10369414;28;20049;-53
2023/08/06 23:40:53;;;;;;;1.65;0.75;;;;;;;;;;10368814;28;20030;-52
2023/08/06 23:45:55;;;;;;;5.07;0.80;;;;;;;;;;10369112;28;20026;-51
2023/08/06 23:50:56;;;;;;;1.08;0.80;;;;;;;;;;10369335;28;20026;-53
2023/08/06 23:55:56;;;;;;;3.33;1.10;;;;;;;;;;10368667;28;20026;-52
